Airfield :
LOGIN :

Register | Disclaimer

   EN    FR    IT 

 










Legend :    VFR   Marginal VFR   IFR   Intensive IFR   Very Intensive IFR
Visi :
Ceiling :
>= 8 km
>= 3000ft
5 to 8 km
1000 to 3000 ft
1500m to 5 km
500 to 1000 ft
800 to 1500m
200 to 500 ft
< 800m
< 200 ft
Symbols :   Thunderstorms  Fog  Heavy snow  Heavy precipitations  Wind > 20 kt
SIGMETs :     Misc.  Thunderstorms  Icing  Turbulence  Mountain Waves  Volcanic Ashes






- Airport Elevation : 37 ft


EHVL - Vlieland Heliport

CURRENT METAR :
  • 021325Z AUTO 27016KT 8000 BR OVC008 08/07 Q1021 GRN

EXPIRED METARs :
  • 021302Z AUTO 27017KT 8000 BR SCT010 BKN032 OVC046 08/07 Q1021 GRN
  • 021255Z AUTO 27016KT 8000 BR FEW017 BKN029 OVC033 08/07 Q1021 BLU
  • 021233Z AUTO 28017KT 8000 BR SCT015 BKN018 OVC023 08/07 Q1021 WHT
  • 021229Z AUTO 28017KT 7000 BR SCT014 BKN017 BKN021 08/07 Q1021 GRN
  • 021219Z AUTO 28017KT 8000 BR FEW017 OVC025 08/07 Q1021 BLU
  • 021155Z AUTO 28019KT 8000 BR SCT019 OVC023 08/07 Q1021 WHT
  • 021143Z AUTO 28020KT 7000 BR FEW008 BKN016 OVC020 08/07 Q1021 WHT
  • 021131Z AUTO 28021KT 4300 BR SCT007 OVC008 08/07 Q1021 GRN
  • 021125Z AUTO 28021KT 7000 BR OVC008 08/07 Q1021 GRN
  • 021055Z AUTO 28019KT 7000 BR OVC010 08/07 Q1021 GRN
  • 021025Z AUTO 28019KT 6000 -DZ FEW009 OVC010 08/07 Q1021 REDZ GRN

Expired Forecast.



MET'MAP, your aeronautical weather chart ! - Copyright ORBIFLY December 2007 - Disclaimer

ORBIFLY MET'MAP TEAM :

Programming & Development : Alexandra Zaïnal
Original concept : Baudouin d'Aumeries
Technical & hardware support : Manuel Goepfert
Assistance : Marc-Olivier Méhu




SOURCES & CREDITS :

   NOAA